sensor_id;sensor_type;location;lat;lon;timestamp;pressure;altitude;pressure_sealevel;temperature
60949;BMP280;46729;43.010;24.320;2022-07-10T00:00:49;97019.91;;;16.61
60949;BMP280;46729;43.010;24.320;2022-07-10T00:03:16;97022.25;;;16.58
60949;BMP280;46729;43.010;24.320;2022-07-10T00:05:43;97013.47;;;16.46
60949;BMP280;46729;43.010;24.320;2022-07-10T00:08:09;97004.34;;;16.53
60949;BMP280;46729;43.010;24.320;2022-07-10T00:10:36;97005.06;;;16.49
60949;BMP280;46729;43.010;24.320;2022-07-10T00:13:03;97000.19;;;16.35
60949;BMP280;46729;43.010;24.320;2022-07-10T00:15:30;97003.66;;;16.35
60949;BMP280;46729;43.010;24.320;2022-07-10T00:17:58;97004.00;;;16.61
60949;BMP280;46729;43.010;24.320;2022-07-10T00:20:25;97000.09;;;16.75
60949;BMP280;46729;43.010;24.320;2022-07-10T00:22:52;96998.81;;;16.66
60949;BMP280;46729;43.010;24.320;2022-07-10T00:25:19;96996.84;;;16.73
60949;BMP280;46729;43.010;24.320;2022-07-10T00:27:46;96990.06;;;16.77
60949;BMP280;46729;43.010;24.320;2022-07-10T00:30:13;96994.41;;;16.71
60949;BMP280;46729;43.010;24.320;2022-07-10T00:32:40;96986.22;;;16.61
60949;BMP280;46729;43.010;24.320;2022-07-10T00:35:07;96992.13;;;16.52
60949;BMP280;46729;43.010;24.320;2022-07-10T00:37:35;96983.25;;;16.47
60949;BMP280;46729;43.010;24.320;2022-07-10T00:40:03;96987.28;;;16.60
60949;BMP280;46729;43.010;24.320;2022-07-10T00:42:32;96987.63;;;16.64
60949;BMP280;46729;43.010;24.320;2022-07-10T00:45:00;96978.03;;;16.52
60949;BMP280;46729;43.010;24.320;2022-07-10T00:47:26;96981.84;;;16.44
60949;BMP280;46729;43.010;24.320;2022-07-10T00:49:53;96972.31;;;16.32
60949;BMP280;46729;43.010;24.320;2022-07-10T00:52:20;96972.16;;;16.27
60949;BMP280;46729;43.010;24.320;2022-07-10T00:54:48;96976.31;;;16.46
60949;BMP280;46729;43.010;24.320;2022-07-10T00:57:20;96979.22;;;16.67
60949;BMP280;46729;43.010;24.320;2022-07-10T00:59:48;96979.31;;;16.60
60949;BMP280;46729;43.010;24.320;2022-07-10T01:02:16;96986.59;;;16.54
60949;BMP280;46729;43.010;24.320;2022-07-10T01:04:43;96978.41;;;16.33
60949;BMP280;46729;43.010;24.320;2022-07-10T01:07:11;96979.66;;;16.30
60949;BMP280;46729;43.010;24.320;2022-07-10T01:09:38;96978.50;;;16.15
60949;BMP280;46729;43.010;24.320;2022-07-10T01:12:05;96971.34;;;16.04
60949;BMP280;46729;43.010;24.320;2022-07-10T01:14:33;96969.22;;;15.95
60949;BMP280;46729;43.010;24.320;2022-07-10T01:17:06;96969.28;;;16.06
60949;BMP280;46729;43.010;24.320;2022-07-10T01:19:33;96971.34;;;16.27
60949;BMP280;46729;43.010;24.320;2022-07-10T01:22:00;96972.72;;;16.18
60949;BMP280;46729;43.010;24.320;2022-07-10T01:24:26;96970.09;;;16.18
60949;BMP280;46729;43.010;24.320;2022-07-10T01:26:53;96970.78;;;16.14
60949;BMP280;46729;43.010;24.320;2022-07-10T01:29:21;96961.91;;;16.08
60949;BMP280;46729;43.010;24.320;2022-07-10T01:31:48;96967.66;;;16.05
60949;BMP280;46729;43.010;24.320;2022-07-10T01:34:15;96965.34;;;15.98
60949;BMP280;46729;43.010;24.320;2022-07-10T01:36:43;96965.63;;;15.79
60949;BMP280;46729;43.010;24.320;2022-07-10T01:39:09;96964.91;;;15.83
60949;BMP280;46729;43.010;24.320;2022-07-10T01:41:35;96961.97;;;15.91
60949;BMP280;46729;43.010;24.320;2022-07-10T01:44:02;96953.84;;;16.15
60949;BMP280;46729;43.010;24.320;2022-07-10T01:46:29;96956.28;;;16.39
60949;BMP280;46729;43.010;24.320;2022-07-10T01:49:15;96962.03;;;16.36
60949;BMP280;46729;43.010;24.320;2022-07-10T01:51:42;96951.78;;;16.39
60949;BMP280;46729;43.010;24.320;2022-07-10T01:54:09;96952.69;;;16.44
60949;BMP280;46729;43.010;24.320;2022-07-10T01:56:36;96952.69;;;16.44
60949;BMP280;46729;43.010;24.320;2022-07-10T01:59:04;96958.78;;;16.45
60949;BMP280;46729;43.010;24.320;2022-07-10T02:01:31;96953.50;;;16.45
60949;BMP280;46729;43.010;24.320;2022-07-10T02:03:58;96958.00;;;16.67
60949;BMP280;46729;43.010;24.320;2022-07-10T02:06:43;96960.41;;;16.57
60949;BMP280;46729;43.010;24.320;2022-07-10T02:09:10;96955.34;;;16.56
60949;BMP280;46729;43.010;24.320;2022-07-10T02:11:37;96946.94;;;16.47
60949;BMP280;46729;43.010;24.320;2022-07-10T02:14:04;96951.53;;;16.29
60949;BMP280;46729;43.010;24.320;2022-07-10T02:16:31;96945.22;;;16.41
60949;BMP280;46729;43.010;24.320;2022-07-10T02:18:58;96945.66;;;16.16
60949;BMP280;46729;43.010;24.320;2022-07-10T02:21:25;96943.09;;;16.43
60949;BMP280;46729;43.010;24.320;2022-07-10T02:23:52;96951.19;;;16.59
60949;BMP280;46729;43.010;24.320;2022-07-10T02:26:18;96952.78;;;16.60
60949;BMP280;46729;43.010;24.320;2022-07-10T02:28:46;96942.16;;;16.60
60949;BMP280;46729;43.010;24.320;2022-07-10T02:31:13;96942.75;;;16.74
60949;BMP280;46729;43.010;24.320;2022-07-10T02:33:40;96938.72;;;17.21
60949;BMP280;46729;43.010;24.320;2022-07-10T02:36:07;96929.22;;;17.36
60949;BMP280;46729;43.010;24.320;2022-07-10T02:38:33;96938.41;;;17.45
60949;BMP280;46729;43.010;24.320;2022-07-10T02:41:00;96943.03;;;17.38
60949;BMP280;46729;43.010;24.320;2022-07-10T02:43:27;96939.63;;;17.26
60949;BMP280;46729;43.010;24.320;2022-07-10T02:45:54;96934.94;;;17.17
60949;BMP280;46729;43.010;24.320;2022-07-10T02:48:21;96945.50;;;17.01
60949;BMP280;46729;43.010;24.320;2022-07-10T02:50:48;96948.03;;;16.96
60949;BMP280;46729;43.010;24.320;2022-07-10T02:53:14;96941.91;;;16.96
60949;BMP280;46729;43.010;24.320;2022-07-10T02:55:40;96944.09;;;16.87
60949;BMP280;46729;43.010;24.320;2022-07-10T02:58:06;96940.88;;;16.85
60949;BMP280;46729;43.010;24.320;2022-07-10T03:00:36;96939.59;;;16.88
60949;BMP280;46729;43.010;24.320;2022-07-10T03:03:03;96939.91;;;17.14
60949;BMP280;46729;43.010;24.320;2022-07-10T03:05:30;96935.50;;;17.19
60949;BMP280;46729;43.010;24.320;2022-07-10T03:07:57;96931.06;;;17.35
60949;BMP280;46729;43.010;24.320;2022-07-10T03:10:23;96939.84;;;17.36
60949;BMP280;46729;43.010;24.320;2022-07-10T03:12:50;96946.44;;;17.22
60949;BMP280;46729;43.010;24.320;2022-07-10T03:15:17;96948.59;;;16.98
60949;BMP280;46729;43.010;24.320;2022-07-10T03:17:44;96959.22;;;16.87
60949;BMP280;46729;43.010;24.320;2022-07-10T03:20:11;96959.34;;;16.80
60949;BMP280;46729;43.010;24.320;2022-07-10T03:22:38;96959.47;;;16.85
60949;BMP280;46729;43.010;24.320;2022-07-10T03:25:05;96955.06;;;16.79
60949;BMP280;46729;43.010;24.320;2022-07-10T03:27:33;96956.00;;;16.74
60949;BMP280;46729;43.010;24.320;2022-07-10T03:30:00;96963.56;;;16.43
60949;BMP280;46729;43.010;24.320;2022-07-10T03:32:27;96975.28;;;16.36
60949;BMP280;46729;43.010;24.320;2022-07-10T03:34:53;96968.25;;;16.30
60949;BMP280;46729;43.010;24.320;2022-07-10T03:37:21;96962.94;;;16.30
60949;BMP280;46729;43.010;24.320;2022-07-10T03:39:47;96957.31;;;16.49
60949;BMP280;46729;43.010;24.320;2022-07-10T03:42:13;96958.56;;;16.58
60949;BMP280;46729;43.010;24.320;2022-07-10T03:44:40;96958.00;;;16.67
60949;BMP280;46729;43.010;24.320;2022-07-10T03:47:07;96955.56;;;16.77
60949;BMP280;46729;43.010;24.320;2022-07-10T03:49:34;96953.91;;;16.87
60949;BMP280;46729;43.010;24.320;2022-07-10T03:52:02;96956.00;;;16.85
60949;BMP280;46729;43.010;24.320;2022-07-10T03:54:29;96953.69;;;16.99
60949;BMP280;46729;43.010;24.320;2022-07-10T03:56:57;96951.75;;;17.22
60949;BMP280;46729;43.010;24.320;2022-07-10T03:59:43;96940.88;;;17.35
60949;BMP280;46729;43.010;24.320;2022-07-10T04:02:10;96946.06;;;17.30
60949;BMP280;46729;43.010;24.320;2022-07-10T04:04:37;96949.44;;;17.26
60949;BMP280;46729;43.010;24.320;2022-07-10T04:07:04;96939.50;;;17.33
60949;BMP280;46729;43.010;24.320;2022-07-10T04:09:31;96940.94;;;17.40
60949;BMP280;46729;43.010;24.320;2022-07-10T04:11:58;96945.75;;;17.27
60949;BMP280;46729;43.010;24.320;2022-07-10T04:14:24;96941.81;;;17.29
60949;BMP280;46729;43.010;24.320;2022-07-10T04:16:51;96935.56;;;17.35
60949;BMP280;46729;43.010;24.320;2022-07-10T04:19:18;96948.50;;;17.32
60949;BMP280;46729;43.010;24.320;2022-07-10T04:21:44;96944.22;;;17.31
60949;BMP280;46729;43.010;24.320;2022-07-10T04:24:11;96928.63;;;17.34
60949;BMP280;46729;43.010;24.320;2022-07-10T04:26:38;96943.91;;;17.27
60949;BMP280;46729;43.010;24.320;2022-07-10T04:29:04;96936.22;;;17.42
60949;BMP280;46729;43.010;24.320;2022-07-10T04:31:31;96931.09;;;17.52
60949;BMP280;46729;43.010;24.320;2022-07-10T04:33:58;96933.13;;;17.61
60949;BMP280;46729;43.010;24.320;2022-07-10T04:36:25;96944.56;;;17.61
60949;BMP280;46729;43.010;24.320;2022-07-10T04:38:52;96937.94;;;17.64
60949;BMP280;46729;43.010;24.320;2022-07-10T04:41:18;96940.72;;;17.85
60949;BMP280;46729;43.010;24.320;2022-07-10T04:43:45;96950.13;;;17.87
60949;BMP280;46729;43.010;24.320;2022-07-10T04:46:12;96949.34;;;17.75
60949;BMP280;46729;43.010;24.320;2022-07-10T04:48:39;96955.50;;;17.65
60949;BMP280;46729;43.010;24.320;2022-07-10T04:51:06;96952.44;;;17.56
60949;BMP280;46729;43.010;24.320;2022-07-10T04:53:33;96961.16;;;17.41
60949;BMP280;46729;43.010;24.320;2022-07-10T04:56:00;96965.09;;;17.38
60949;BMP280;46729;43.010;24.320;2022-07-10T04:58:29;96960.84;;;17.37
60949;BMP280;46729;43.010;24.320;2022-07-10T05:00:56;96963.25;;;17.39
60949;BMP280;46729;43.010;24.320;2022-07-10T05:03:23;96970.75;;;17.42
60949;BMP280;46729;43.010;24.320;2022-07-10T05:05:49;96965.81;;;17.34
60949;BMP280;46729;43.010;24.320;2022-07-10T05:08:16;96965.63;;;17.13
60949;BMP280;46729;43.010;24.320;2022-07-10T05:10:42;96972.72;;;17.08
60949;BMP280;46729;43.010;24.320;2022-07-10T05:13:10;96970.41;;;17.00
60949;BMP280;46729;43.010;24.320;2022-07-10T05:15:38;96970.75;;;17.03
60949;BMP280;46729;43.010;24.320;2022-07-10T05:18:04;96972.50;;;16.98
60949;BMP280;46729;43.010;24.320;2022-07-10T05:20:31;96966.81;;;17.06
60949;BMP280;46729;43.010;24.320;2022-07-10T05:22:58;96962.91;;;17.08
60949;BMP280;46729;43.010;24.320;2022-07-10T05:25:25;96967.25;;;17.14
60949;BMP280;46729;43.010;24.320;2022-07-10T05:27:52;96962.28;;;17.17
60949;BMP280;46729;43.010;24.320;2022-07-10T05:30:19;96971.66;;;17.20
60949;BMP280;46729;43.010;24.320;2022-07-10T05:32:46;96958.03;;;17.16
60949;BMP280;46729;43.010;24.320;2022-07-10T05:35:14;96967.81;;;17.27
60949;BMP280;46729;43.010;24.320;2022-07-10T05:37:41;96961.53;;;17.33
60949;BMP280;46729;43.010;24.320;2022-07-10T05:40:08;96963.97;;;17.35
60949;BMP280;46729;43.010;24.320;2022-07-10T05:42:35;96956.19;;;17.44
60949;BMP280;46729;43.010;24.320;2022-07-10T05:45:03;96951.88;;;17.54
60949;BMP280;46729;43.010;24.320;2022-07-10T05:47:31;96949.66;;;17.63
60949;BMP280;46729;43.010;24.320;2022-07-10T05:49:59;96955.78;;;17.63
60949;BMP280;46729;43.010;24.320;2022-07-10T05:52:26;96952.00;;;17.75
60949;BMP280;46729;43.010;24.320;2022-07-10T05:54:55;96959.56;;;17.83
60949;BMP280;46729;43.010;24.320;2022-07-10T05:57:22;96950.03;;;17.98
60949;BMP280;46729;43.010;24.320;2022-07-10T05:59:49;96948.91;;;18.11
60949;BMP280;46729;43.010;24.320;2022-07-10T06:02:17;96945.13;;;18.23
60949;BMP280;46729;43.010;24.320;2022-07-10T06:04:46;96944.63;;;18.42
60949;BMP280;46729;43.010;24.320;2022-07-10T06:07:13;96948.38;;;18.62
60949;BMP280;46729;43.010;24.320;2022-07-10T06:09:40;96937.88;;;18.71
60949;BMP280;46729;43.010;24.320;2022-07-10T06:12:07;96936.50;;;18.85
60949;BMP280;46729;43.010;24.320;2022-07-10T06:14:37;96942.19;;;18.93
60949;BMP280;46729;43.010;24.320;2022-07-10T06:17:04;96944.25;;;19.08
60949;BMP280;46729;43.010;24.320;2022-07-10T06:19:30;96942.09;;;19.26
60949;BMP280;46729;43.010;24.320;2022-07-10T06:21:57;96943.00;;;19.36
60949;BMP280;46729;43.010;24.320;2022-07-10T06:24:43;96942.56;;;19.44
60949;BMP280;46729;43.010;24.320;2022-07-10T06:27:10;96951.09;;;19.45
60949;BMP280;46729;43.010;24.320;2022-07-10T06:29:37;96939.09;;;19.64
60949;BMP280;46729;43.010;24.320;2022-07-10T06:32:04;96942.81;;;19.63
60949;BMP280;46729;43.010;24.320;2022-07-10T06:34:32;96939.66;;;19.66
60949;BMP280;46729;43.010;24.320;2022-07-10T06:36:58;96937.81;;;19.71
60949;BMP280;46729;43.010;24.320;2022-07-10T06:39:45;96935.00;;;19.83
60949;BMP280;46729;43.010;24.320;2022-07-10T06:42:17;96936.63;;;19.84
60949;BMP280;46729;43.010;24.320;2022-07-10T06:44:43;96941.19;;;19.88
60949;BMP280;46729;43.010;24.320;2022-07-10T06:47:12;96938.47;;;19.83
60949;BMP280;46729;43.010;24.320;2022-07-10T06:49:59;96937.81;;;19.97
60949;BMP280;46729;43.010;24.320;2022-07-10T07:06:45;96926.66;;;19.53
60949;BMP280;46729;43.010;24.320;2022-07-10T07:09:11;96926.06;;;19.46
60949;BMP280;46729;43.010;24.320;2022-07-10T07:11:37;96922.34;;;19.47
60949;BMP280;46729;43.010;24.320;2022-07-10T07:14:02;96918.03;;;19.42
60949;BMP280;46729;43.010;24.320;2022-07-10T07:16:28;96921.53;;;19.47
60949;BMP280;46729;43.010;24.320;2022-07-10T07:19:05;96922.09;;;19.49
60949;BMP280;46729;43.010;24.320;2022-07-10T07:21:32;96916.53;;;19.50
60949;BMP280;46729;43.010;24.320;2022-07-10T07:24:18;96922.75;;;19.56
60949;BMP280;46729;43.010;24.320;2022-07-10T07:26:47;96924.69;;;19.65
60949;BMP280;46729;43.010;24.320;2022-07-10T07:29:17;96911.94;;;19.67
60949;BMP280;46729;43.010;24.320;2022-07-10T07:31:43;96915.94;;;19.95
60949;BMP280;46729;43.010;24.320;2022-07-10T07:34:09;96915.41;;;19.98
60949;BMP280;46729;43.010;24.320;2022-07-10T07:36:36;96913.28;;;19.95
60949;BMP280;46729;43.010;24.320;2022-07-10T07:39:04;96917.84;;;20.04
60949;BMP280;46729;43.010;24.320;2022-07-10T07:41:30;96916.31;;;20.08
60949;BMP280;46729;43.010;24.320;2022-07-10T07:43:57;96914.47;;;20.14
60949;BMP280;46729;43.010;24.320;2022-07-10T07:46:22;96913.72;;;20.18
60949;BMP280;46729;43.010;24.320;2022-07-10T07:48:49;96909.03;;;20.30
60949;BMP280;46729;43.010;24.320;2022-07-10T07:51:15;96902.22;;;20.48
60949;BMP280;46729;43.010;24.320;2022-07-10T07:53:42;96907.72;;;20.73
60949;BMP280;46729;43.010;24.320;2022-07-10T07:56:09;96909.59;;;20.72
60949;BMP280;46729;43.010;24.320;2022-07-10T07:58:36;96891.88;;;21.07
60949;BMP280;46729;43.010;24.320;2022-07-10T08:01:01;96901.97;;;21.00
60949;BMP280;46729;43.010;24.320;2022-07-10T08:03:28;96890.34;;;21.25
60949;BMP280;46729;43.010;24.320;2022-07-10T08:05:55;96898.38;;;21.25
60949;BMP280;46729;43.010;24.320;2022-07-10T08:08:23;96902.47;;;21.47
60949;BMP280;46729;43.010;24.320;2022-07-10T08:10:50;96888.78;;;21.34
60949;BMP280;46729;43.010;24.320;2022-07-10T08:13:17;96887.75;;;21.40
60949;BMP280;46729;43.010;24.320;2022-07-10T08:15:42;96892.25;;;21.35
60949;BMP280;46729;43.010;24.320;2022-07-10T08:18:10;96899.59;;;21.03
60949;BMP280;46729;43.010;24.320;2022-07-10T08:20:36;96893.81;;;21.21
60949;BMP280;46729;43.010;24.320;2022-07-10T08:23:01;96888.53;;;21.40
60949;BMP280;46729;43.010;24.320;2022-07-10T08:25:28;96892.03;;;21.60
60949;BMP280;46729;43.010;24.320;2022-07-10T08:28:03;96895.00;;;21.64
60949;BMP280;46729;43.010;24.320;2022-07-10T08:30:30;96888.66;;;22.09
60949;BMP280;46729;43.010;24.320;2022-07-10T08:32:55;96886.78;;;22.09
60949;BMP280;46729;43.010;24.320;2022-07-10T08:35:21;96885.16;;;22.03
60949;BMP280;46729;43.010;24.320;2022-07-10T08:37:47;96888.66;;;21.99
60949;BMP280;46729;43.010;24.320;2022-07-10T08:40:15;96886.22;;;21.83
60949;BMP280;46729;43.010;24.320;2022-07-10T08:42:43;96888.94;;;21.93
60949;BMP280;46729;43.010;24.320;2022-07-10T08:45:14;96887.00;;;21.78
60949;BMP280;46729;43.010;24.320;2022-07-10T08:47:40;96893.47;;;21.92
60949;BMP280;46729;43.010;24.320;2022-07-10T08:50:17;96891.34;;;21.99
60949;BMP280;46729;43.010;24.320;2022-07-10T08:53:07;96885.69;;;22.20
60949;BMP280;46729;43.010;24.320;2022-07-10T08:55:36;96892.94;;;22.34
60949;BMP280;46729;43.010;24.320;2022-07-10T08:58:03;96890.25;;;22.44
60949;BMP280;46729;43.010;24.320;2022-07-10T09:00:33;96889.97;;;22.40
60949;BMP280;46729;43.010;24.320;2022-07-10T09:03:00;96884.88;;;22.63
60949;BMP280;46729;43.010;24.320;2022-07-10T09:05:26;96887.56;;;22.44
60949;BMP280;46729;43.010;24.320;2022-07-10T09:07:53;96878.19;;;22.61
60949;BMP280;46729;43.010;24.320;2022-07-10T09:10:24;96877.63;;;22.54
60949;BMP280;46729;43.010;24.320;2022-07-10T09:12:58;96876.31;;;22.52
60949;BMP280;46729;43.010;24.320;2022-07-10T09:15:26;96882.19;;;22.63
60949;BMP280;46729;43.010;24.320;2022-07-10T09:18:04;96875.75;;;22.74
60949;BMP280;46729;43.010;24.320;2022-07-10T09:20:39;96887.00;;;22.76
60949;BMP280;46729;43.010;24.320;2022-07-10T09:25:45;96880.31;;;22.49
60949;BMP280;46729;43.010;24.320;2022-07-10T09:28:15;96880.09;;;22.26
60949;BMP280;46729;43.010;24.320;2022-07-10T09:30:43;96883.00;;;22.39
60949;BMP280;46729;43.010;24.320;2022-07-10T09:33:26;96876.59;;;22.40
60949;BMP280;46729;43.010;24.320;2022-07-10T09:36:03;96878.38;;;22.89
60949;BMP280;46729;43.010;24.320;2022-07-10T09:38:51;96869.38;;;23.37
60949;BMP280;46729;43.010;24.320;2022-07-10T09:44:03;96863.03;;;23.61
60949;BMP280;46729;43.010;24.320;2022-07-10T09:46:47;96865.13;;;23.68
60949;BMP280;46729;43.010;24.320;2022-07-10T09:49:14;96860.78;;;23.77
60949;BMP280;46729;43.010;24.320;2022-07-10T09:51:46;96853.22;;;23.47
60949;BMP280;46729;43.010;24.320;2022-07-10T09:54:15;96861.50;;;23.50
60949;BMP280;46729;43.010;24.320;2022-07-10T09:56:48;96858.00;;;23.49
60949;BMP280;46729;43.010;24.320;2022-07-10T09:59:18;96858.81;;;23.50
60949;BMP280;46729;43.010;24.320;2022-07-10T10:01:49;96849.50;;;23.80
60949;BMP280;46729;43.010;24.320;2022-07-10T10:04:21;96863.69;;;23.43
60949;BMP280;46729;43.010;24.320;2022-07-10T10:06:53;96860.91;;;23.58
60949;BMP280;46729;43.010;24.320;2022-07-10T10:09:52;96866.63;;;23.42
60949;BMP280;46729;43.010;24.320;2022-07-10T10:12:58;96858.84;;;23.45
60949;BMP280;46729;43.010;24.320;2022-07-10T10:15:26;96847.72;;;23.66
60949;BMP280;46729;43.010;24.320;2022-07-10T10:17:54;96841.31;;;23.62
60949;BMP280;46729;43.010;24.320;2022-07-10T10:20:22;96843.16;;;24.04
60949;BMP280;46729;43.010;24.320;2022-07-10T10:23:09;96833.56;;;23.98
60949;BMP280;46729;43.010;24.320;2022-07-10T10:25:37;96835.84;;;24.14
60949;BMP280;46729;43.010;24.320;2022-07-10T10:28:07;96817.34;;;24.64
60949;BMP280;46729;43.010;24.320;2022-07-10T10:30:41;96821.59;;;24.69
60949;BMP280;46729;43.010;24.320;2022-07-10T10:36:03;96817.41;;;24.82
60949;BMP280;46729;43.010;24.320;2022-07-10T10:41:41;96802.28;;;25.08
60949;BMP280;46729;43.010;24.320;2022-07-10T10:49:55;96806.66;;;25.63
60949;BMP280;46729;43.010;24.320;2022-07-10T10:52:26;96803.22;;;25.76
60949;BMP280;46729;43.010;24.320;2022-07-10T10:55:02;96802.13;;;25.77
60949;BMP280;46729;43.010;24.320;2022-07-10T10:57:37;96803.44;;;25.98
60949;BMP280;46729;43.010;24.320;2022-07-10T11:00:12;96794.81;;;26.14
60949;BMP280;46729;43.010;24.320;2022-07-10T11:02:41;96788.88;;;26.30
60949;BMP280;46729;43.010;24.320;2022-07-10T11:07:55;96772.38;;;26.49
60949;BMP280;46729;43.010;24.320;2022-07-10T11:10:44;96777.25;;;26.60
60949;BMP280;46729;43.010;24.320;2022-07-10T11:13:14;96774.47;;;26.78
60949;BMP280;46729;43.010;24.320;2022-07-10T11:15:49;96788.06;;;26.74
60949;BMP280;46729;43.010;24.320;2022-07-10T11:18:21;96780.94;;;26.51
60949;BMP280;46729;43.010;24.320;2022-07-10T11:20:55;96781.75;;;26.20
60949;BMP280;46729;43.010;24.320;2022-07-10T11:26:07;96767.53;;;26.02
60949;BMP280;46729;43.010;24.320;2022-07-10T11:28:55;96770.00;;;26.43
60949;BMP280;46729;43.010;24.320;2022-07-10T11:31:23;96781.78;;;26.34
60949;BMP280;46729;43.010;24.320;2022-07-10T11:33:51;96783.78;;;25.97
60949;BMP280;46729;43.010;24.320;2022-07-10T11:36:30;96775.63;;;25.84
60949;BMP280;46729;43.010;24.320;2022-07-10T11:39:03;96779.69;;;25.81
60949;BMP280;46729;43.010;24.320;2022-07-10T11:41:33;96769.69;;;25.69
60949;BMP280;46729;43.010;24.320;2022-07-10T11:44:02;96772.09;;;25.70
60949;BMP280;46729;43.010;24.320;2022-07-10T11:46:34;96776.53;;;25.61
60949;BMP280;46729;43.010;24.320;2022-07-10T11:49:06;96768.75;;;25.60
60949;BMP280;46729;43.010;24.320;2022-07-10T11:51:37;96770.56;;;25.64
60949;BMP280;46729;43.010;24.320;2022-07-10T11:54:14;96770.63;;;25.23
60949;BMP280;46729;43.010;24.320;2022-07-10T11:56:49;96766.78;;;25.47
60949;BMP280;46729;43.010;24.320;2022-07-10T11:59:23;96767.16;;;25.41
60949;BMP280;46729;43.010;24.320;2022-07-10T12:01:52;96772.13;;;25.52
60949;BMP280;46729;43.010;24.320;2022-07-10T12:04:20;96770.28;;;25.48
60949;BMP280;46729;43.010;24.320;2022-07-10T12:06:50;96763.97;;;25.39
60949;BMP280;46729;43.010;24.320;2022-07-10T12:09:19;96761.88;;;25.36
60949;BMP280;46729;43.010;24.320;2022-07-10T12:12:17;96760.84;;;25.50
60949;BMP280;46729;43.010;24.320;2022-07-10T12:14:49;96751.53;;;25.61
60949;BMP280;46729;43.010;24.320;2022-07-10T12:17:30;96749.97;;;25.73
60949;BMP280;46729;43.010;24.320;2022-07-10T12:19:56;96758.38;;;25.54
60949;BMP280;46729;43.010;24.320;2022-07-10T12:22:22;96761.06;;;25.36
60949;BMP280;46729;43.010;24.320;2022-07-10T12:24:50;96754.13;;;25.12
60949;BMP280;46729;43.010;24.320;2022-07-10T12:27:41;96760.28;;;24.94
60949;BMP280;46729;43.010;24.320;2022-07-10T12:30:08;96749.31;;;24.91
60949;BMP280;46729;43.010;24.320;2022-07-10T12:32:35;96754.41;;;24.69
60949;BMP280;46729;43.010;24.320;2022-07-10T12:35:02;96749.06;;;24.87
60949;BMP280;46729;43.010;24.320;2022-07-10T12:37:27;96750.34;;;24.95
60949;BMP280;46729;43.010;24.320;2022-07-10T12:39:54;96741.47;;;25.66
60949;BMP280;46729;43.010;24.320;2022-07-10T12:42:32;96739.94;;;26.10
60949;BMP280;46729;43.010;24.320;2022-07-10T12:45:14;96734.88;;;25.90
60949;BMP280;46729;43.010;24.320;2022-07-10T12:47:46;96740.75;;;25.61
60949;BMP280;46729;43.010;24.320;2022-07-10T12:50:13;96734.59;;;25.42
60949;BMP280;46729;43.010;24.320;2022-07-10T12:52:40;96735.84;;;25.32
60949;BMP280;46729;43.010;24.320;2022-07-10T12:58:07;96726.88;;;25.00
60949;BMP280;46729;43.010;24.320;2022-07-10T13:00:36;96722.00;;;25.20
60949;BMP280;46729;43.010;24.320;2022-07-10T13:03:11;96726.66;;;25.51
60949;BMP280;46729;43.010;24.320;2022-07-10T13:05:43;96728.13;;;25.75
60949;BMP280;46729;43.010;24.320;2022-07-10T13:08:19;96726.75;;;26.08
60949;BMP280;46729;43.010;24.320;2022-07-10T13:10:51;96727.56;;;25.96
60949;BMP280;46729;43.010;24.320;2022-07-10T13:13:19;96731.72;;;25.70
60949;BMP280;46729;43.010;24.320;2022-07-10T13:15:47;96730.66;;;25.53
60949;BMP280;46729;43.010;24.320;2022-07-10T13:18:25;96723.66;;;26.01
60949;BMP280;46729;43.010;24.320;2022-07-10T13:20:56;96725.25;;;26.02
60949;BMP280;46729;43.010;24.320;2022-07-10T13:23:23;96734.78;;;25.64
60949;BMP280;46729;43.010;24.320;2022-07-10T13:25:52;96732.47;;;25.40
60949;BMP280;46729;43.010;24.320;2022-07-10T13:28:19;96734.38;;;25.03
60949;BMP280;46729;43.010;24.320;2022-07-10T13:30:46;96728.59;;;24.91
60949;BMP280;46729;43.010;24.320;2022-07-10T13:33:13;96731.41;;;24.82
60949;BMP280;46729;43.010;24.320;2022-07-10T13:35:40;96729.16;;;24.70
60949;BMP280;46729;43.010;24.320;2022-07-10T13:38:08;96725.31;;;24.76
60949;BMP280;46729;43.010;24.320;2022-07-10T13:40:36;96733.06;;;24.78
60949;BMP280;46729;43.010;24.320;2022-07-10T13:43:04;96721.09;;;24.70
60949;BMP280;46729;43.010;24.320;2022-07-10T13:45:35;96734.34;;;24.62
60949;BMP280;46729;43.010;24.320;2022-07-10T13:48:09;96738.53;;;24.50
60949;BMP280;46729;43.010;24.320;2022-07-10T13:50:39;96730.19;;;24.51
60949;BMP280;46729;43.010;24.320;2022-07-10T13:53:07;96728.34;;;24.47
60949;BMP280;46729;43.010;24.320;2022-07-10T13:55:34;96723.69;;;24.52
60949;BMP280;46729;43.010;24.320;2022-07-10T13:58:01;96731.94;;;24.38
60949;BMP280;46729;43.010;24.320;2022-07-10T14:00:29;96732.63;;;24.25
60949;BMP280;46729;43.010;24.320;2022-07-10T14:02:56;96734.22;;;24.26
60949;BMP280;46729;43.010;24.320;2022-07-10T14:05:24;96742.03;;;24.23
60949;BMP280;46729;43.010;24.320;2022-07-10T14:07:50;96732.38;;;24.22
60949;BMP280;46729;43.010;24.320;2022-07-10T15:03:27;96744.09;;;24.07
60949;BMP280;46729;43.010;24.320;2022-07-10T15:05:54;96733.84;;;24.09
60949;BMP280;46729;43.010;24.320;2022-07-10T15:08:23;96741.97;;;24.05
60949;BMP280;46729;43.010;24.320;2022-07-10T15:31:04;96769.03;;;23.43
60949;BMP280;46729;43.010;24.320;2022-07-10T15:33:33;96768.84;;;23.25
60949;BMP280;46729;43.010;24.320;2022-07-10T15:36:00;96773.19;;;23.16
60949;BMP280;46729;43.010;24.320;2022-07-10T15:38:27;96778.31;;;23.12
60949;BMP280;46729;43.010;24.320;2022-07-10T15:40:54;96777.25;;;23.09
60949;BMP280;46729;43.010;24.320;2022-07-10T15:43:21;96787.72;;;23.10
60949;BMP280;46729;43.010;24.320;2022-07-10T15:45:48;96787.75;;;23.00
60949;BMP280;46729;43.010;24.320;2022-07-10T15:48:15;96776.50;;;23.03
60949;BMP280;46729;43.010;24.320;2022-07-10T15:50:42;96783.97;;;23.06
60949;BMP280;46729;43.010;24.320;2022-07-10T15:53:09;96780.22;;;23.07
60949;BMP280;46729;43.010;24.320;2022-07-10T15:55:36;96784.97;;;23.20
60949;BMP280;46729;43.010;24.320;2022-07-10T15:58:03;96790.81;;;23.31
60949;BMP280;46729;43.010;24.320;2022-07-10T16:00:30;96789.50;;;23.24